sensor_id;sensor_type;location;lat;lon;timestamp;temperature;humidity
14527;DHT22;7350;51.208;4.238;2022-08-19T00:01:17;20.50;99.90
14527;DHT22;7350;51.208;4.238;2022-08-19T00:03:44;20.70;99.90
14527;DHT22;7350;51.208;4.238;2022-08-19T00:06:11;20.80;99.90
14527;DHT22;7350;51.208;4.238;2022-08-19T00:08:38;20.70;99.90
14527;DHT22;7350;51.208;4.238;2022-08-19T00:11:05;20.60;99.90
14527;DHT22;7350;51.208;4.238;2022-08-19T00:13:33;20.60;99.90
14527;DHT22;7350;51.208;4.238;2022-08-19T00:16:02;20.60;99.90
14527;DHT22;7350;51.208;4.238;2022-08-19T00:18:29;20.60;99.90
14527;DHT22;7350;51.208;4.238;2022-08-19T00:20:56;20.50;99.90
14527;DHT22;7350;51.208;4.238;2022-08-19T00:23:22;20.50;99.90
14527;DHT22;7350;51.208;4.238;2022-08-19T00:25:49;20.40;99.90
14527;DHT22;7350;51.208;4.238;2022-08-19T00:28:18;20.20;99.90
14527;DHT22;7350;51.208;4.238;2022-08-19T00:30:46;20.10;99.90
14527;DHT22;7350;51.208;4.238;2022-08-19T00:33:16;20.00;99.90
14527;DHT22;7350;51.208;4.238;2022-08-19T00:35:43;19.90;99.90
14527;DHT22;7350;51.208;4.238;2022-08-19T00:38:10;20.00;99.90
14527;DHT22;7350;51.208;4.238;2022-08-19T00:40:37;20.00;99.90
14527;DHT22;7350;51.208;4.238;2022-08-19T00:43:09;20.10;99.90
14527;DHT22;7350;51.208;4.238;2022-08-19T00:45:36;20.40;99.90
14527;DHT22;7350;51.208;4.238;2022-08-19T00:48:03;20.50;99.90
14527;DHT22;7350;51.208;4.238;2022-08-19T00:50:34;20.60;99.90
14527;DHT22;7350;51.208;4.238;2022-08-19T00:53:02;20.50;99.90
14527;DHT22;7350;51.208;4.238;2022-08-19T00:55:31;20.40;99.90
14527;DHT22;7350;51.208;4.238;2022-08-19T00:58:02;20.40;99.90
14527;DHT22;7350;51.208;4.238;2022-08-19T01:00:32;20.30;99.90
14527;DHT22;7350;51.208;4.238;2022-08-19T01:03:02;20.10;99.90
14527;DHT22;7350;51.208;4.238;2022-08-19T01:05:29;20.00;99.90
14527;DHT22;7350;51.208;4.238;2022-08-19T01:08:01;20.10;99.90
14527;DHT22;7350;51.208;4.238;2022-08-19T01:10:32;20.00;99.90
14527;DHT22;7350;51.208;4.238;2022-08-19T01:13:01;20.20;99.90
14527;DHT22;7350;51.208;4.238;2022-08-19T01:15:31;20.10;99.90
14527;DHT22;7350;51.208;4.238;2022-08-19T01:18:01;20.10;99.90
14527;DHT22;7350;51.208;4.238;2022-08-19T01:20:29;20.20;99.90
14527;DHT22;7350;51.208;4.238;2022-08-19T01:23:02;20.30;99.90
14527;DHT22;7350;51.208;4.238;2022-08-19T01:25:32;20.40;99.90
14527;DHT22;7350;51.208;4.238;2022-08-19T01:28:01;20.40;99.90
14527;DHT22;7350;51.208;4.238;2022-08-19T01:30:30;20.40;99.90
14527;DHT22;7350;51.208;4.238;2022-08-19T01:33:00;20.40;99.90
14527;DHT22;7350;51.208;4.238;2022-08-19T01:35:30;20.50;99.90
14527;DHT22;7350;51.208;4.238;2022-08-19T01:38:02;20.60;99.90
14527;DHT22;7350;51.208;4.238;2022-08-19T01:40:33;20.50;99.90
14527;DHT22;7350;51.208;4.238;2022-08-19T01:43:02;20.40;99.90
14527;DHT22;7350;51.208;4.238;2022-08-19T01:45:31;20.20;99.90
14527;DHT22;7350;51.208;4.238;2022-08-19T01:48:01;20.00;99.90
14527;DHT22;7350;51.208;4.238;2022-08-19T01:50:28;20.10;99.90
14527;DHT22;7350;51.208;4.238;2022-08-19T01:52:55;20.20;99.90
14527;DHT22;7350;51.208;4.238;2022-08-19T01:55:23;20.10;99.90
14527;DHT22;7350;51.208;4.238;2022-08-19T01:57:57;20.00;99.90
14527;DHT22;7350;51.208;4.238;2022-08-19T02:00:27;19.90;99.90
14527;DHT22;7350;51.208;4.238;2022-08-19T02:02:55;19.80;99.90
14527;DHT22;7350;51.208;4.238;2022-08-19T02:05:22;19.70;99.90
14527;DHT22;7350;51.208;4.238;2022-08-19T02:07:50;19.80;99.90
14527;DHT22;7350;51.208;4.238;2022-08-19T02:10:20;19.90;99.90
14527;DHT22;7350;51.208;4.238;2022-08-19T02:12:49;19.90;99.90
14527;DHT22;7350;51.208;4.238;2022-08-19T02:15:16;19.70;99.90
14527;DHT22;7350;51.208;4.238;2022-08-19T02:17:44;19.70;99.90
14527;DHT22;7350;51.208;4.238;2022-08-19T02:20:12;19.70;99.90
14527;DHT22;7350;51.208;4.238;2022-08-19T02:22:39;19.60;99.90
14527;DHT22;7350;51.208;4.238;2022-08-19T02:25:08;19.70;99.90
14527;DHT22;7350;51.208;4.238;2022-08-19T02:27:36;19.80;99.90
14527;DHT22;7350;51.208;4.238;2022-08-19T02:30:06;19.60;99.90
14527;DHT22;7350;51.208;4.238;2022-08-19T02:32:33;19.50;99.90
14527;DHT22;7350;51.208;4.238;2022-08-19T02:35:00;19.50;99.90
14527;DHT22;7350;51.208;4.238;2022-08-19T02:37:27;19.60;99.90
14527;DHT22;7350;51.208;4.238;2022-08-19T02:40:12;19.60;99.90
14527;DHT22;7350;51.208;4.238;2022-08-19T02:42:39;19.60;99.90
14527;DHT22;7350;51.208;4.238;2022-08-19T02:45:10;19.60;99.90
14527;DHT22;7350;51.208;4.238;2022-08-19T02:47:37;19.70;99.90
14527;DHT22;7350;51.208;4.238;2022-08-19T02:50:05;19.60;99.90
14527;DHT22;7350;51.208;4.238;2022-08-19T02:52:33;19.70;99.90
14527;DHT22;7350;51.208;4.238;2022-08-19T02:55:00;19.60;99.90
14527;DHT22;7350;51.208;4.238;2022-08-19T02:57:27;19.60;99.90
14527;DHT22;7350;51.208;4.238;2022-08-19T02:59:57;19.60;99.90
14527;DHT22;7350;51.208;4.238;2022-08-19T03:02:25;19.40;99.90
14527;DHT22;7350;51.208;4.238;2022-08-19T03:04:52;19.50;99.90
14527;DHT22;7350;51.208;4.238;2022-08-19T03:07:23;19.30;99.90
14527;DHT22;7350;51.208;4.238;2022-08-19T03:09:49;19.30;99.90
14527;DHT22;7350;51.208;4.238;2022-08-19T03:12:16;19.40;99.90
14527;DHT22;7350;51.208;4.238;2022-08-19T03:14:43;19.40;99.90
14527;DHT22;7350;51.208;4.238;2022-08-19T03:17:11;19.10;99.90
14527;DHT22;7350;51.208;4.238;2022-08-19T03:19:39;19.30;99.90
14527;DHT22;7350;51.208;4.238;2022-08-19T03:22:06;19.40;99.90
14527;DHT22;7350;51.208;4.238;2022-08-19T03:24:35;19.20;99.90
14527;DHT22;7350;51.208;4.238;2022-08-19T03:27:02;19.10;99.90
14527;DHT22;7350;51.208;4.238;2022-08-19T03:29:31;19.20;99.90
14527;DHT22;7350;51.208;4.238;2022-08-19T03:31:59;19.20;99.90
14527;DHT22;7350;51.208;4.238;2022-08-19T03:34:29;19.10;99.90
14527;DHT22;7350;51.208;4.238;2022-08-19T03:37:02;19.00;99.90
14527;DHT22;7350;51.208;4.238;2022-08-19T03:39:35;19.20;99.90
14527;DHT22;7350;51.208;4.238;2022-08-19T03:42:05;19.20;99.90
14527;DHT22;7350;51.208;4.238;2022-08-19T03:44:32;19.30;99.90
14527;DHT22;7350;51.208;4.238;2022-08-19T03:47:02;19.30;99.90
14527;DHT22;7350;51.208;4.238;2022-08-19T03:49:31;19.10;99.90
14527;DHT22;7350;51.208;4.238;2022-08-19T03:52:02;19.10;99.90
14527;DHT22;7350;51.208;4.238;2022-08-19T03:54:33;19.10;99.90
14527;DHT22;7350;51.208;4.238;2022-08-19T03:57:00;19.10;99.90
14527;DHT22;7350;51.208;4.238;2022-08-19T03:59:30;19.00;99.90
14527;DHT22;7350;51.208;4.238;2022-08-19T04:02:00;18.80;99.90
14527;DHT22;7350;51.208;4.238;2022-08-19T04:04:28;18.70;99.90
14527;DHT22;7350;51.208;4.238;2022-08-19T04:06:56;18.60;99.90
14527;DHT22;7350;51.208;4.238;2022-08-19T04:09:27;18.60;99.90
14527;DHT22;7350;51.208;4.238;2022-08-19T04:11:56;18.70;99.90
14527;DHT22;7350;51.208;4.238;2022-08-19T04:14:25;18.80;99.90
14527;DHT22;7350;51.208;4.238;2022-08-19T04:16:54;18.90;99.90
14527;DHT22;7350;51.208;4.238;2022-08-19T04:19:21;18.70;99.90
14527;DHT22;7350;51.208;4.238;2022-08-19T04:21:51;18.80;99.90
14527;DHT22;7350;51.208;4.238;2022-08-19T04:24:18;18.80;99.90
14527;DHT22;7350;51.208;4.238;2022-08-19T04:26:47;19.00;99.90
14527;DHT22;7350;51.208;4.238;2022-08-19T04:29:17;19.00;99.90
14527;DHT22;7350;51.208;4.238;2022-08-19T04:31:47;19.10;99.90
14527;DHT22;7350;51.208;4.238;2022-08-19T04:34:16;19.00;99.90
14527;DHT22;7350;51.208;4.238;2022-08-19T04:36:45;19.00;99.90
14527;DHT22;7350;51.208;4.238;2022-08-19T04:39:14;19.10;99.90
14527;DHT22;7350;51.208;4.238;2022-08-19T04:41:42;19.00;99.90
14527;DHT22;7350;51.208;4.238;2022-08-19T04:44:27;18.90;99.90
14527;DHT22;7350;51.208;4.238;2022-08-19T04:46:56;18.90;99.90
14527;DHT22;7350;51.208;4.238;2022-08-19T04:49:23;18.80;99.90
14527;DHT22;7350;51.208;4.238;2022-08-19T04:51:52;18.80;99.90
14527;DHT22;7350;51.208;4.238;2022-08-19T04:54:22;18.90;99.90
14527;DHT22;7350;51.208;4.238;2022-08-19T04:56:51;18.70;99.90
14527;DHT22;7350;51.208;4.238;2022-08-19T04:59:19;18.80;99.90
14527;DHT22;7350;51.208;4.238;2022-08-19T05:01:48;18.90;99.90
14527;DHT22;7350;51.208;4.238;2022-08-19T05:04:17;18.80;99.90
14527;DHT22;7350;51.208;4.238;2022-08-19T05:06:44;18.80;99.90
14527;DHT22;7350;51.208;4.238;2022-08-19T05:09:12;18.80;99.90
14527;DHT22;7350;51.208;4.238;2022-08-19T05:11:39;18.90;99.90
14527;DHT22;7350;51.208;4.238;2022-08-19T05:14:07;18.80;99.90
14527;DHT22;7350;51.208;4.238;2022-08-19T05:16:34;18.80;99.90
14527;DHT22;7350;51.208;4.238;2022-08-19T05:19:03;18.90;99.90
14527;DHT22;7350;51.208;4.238;2022-08-19T05:21:47;19.00;99.90
14527;DHT22;7350;51.208;4.238;2022-08-19T05:24:31;19.20;99.90
14527;DHT22;7350;51.208;4.238;2022-08-19T05:27:00;18.90;99.90
14527;DHT22;7350;51.208;4.238;2022-08-19T05:29:29;19.00;99.90
14527;DHT22;7350;51.208;4.238;2022-08-19T05:31:57;18.70;99.90
14527;DHT22;7350;51.208;4.238;2022-08-19T05:34:26;18.70;99.90
14527;DHT22;7350;51.208;4.238;2022-08-19T05:36:57;18.80;99.90
14527;DHT22;7350;51.208;4.238;2022-08-19T05:39:27;19.00;99.90
14527;DHT22;7350;51.208;4.238;2022-08-19T05:41:57;18.90;99.90
14527;DHT22;7350;51.208;4.238;2022-08-19T05:44:25;19.20;99.90
14527;DHT22;7350;51.208;4.238;2022-08-19T05:46:53;19.20;99.90
14527;DHT22;7350;51.208;4.238;2022-08-19T05:49:22;19.20;99.90
14527;DHT22;7350;51.208;4.238;2022-08-19T05:51:51;19.20;99.90
14527;DHT22;7350;51.208;4.238;2022-08-19T05:54:18;19.00;99.90
14527;DHT22;7350;51.208;4.238;2022-08-19T05:56:46;19.10;99.90
14527;DHT22;7350;51.208;4.238;2022-08-19T05:59:15;19.20;99.90
14527;DHT22;7350;51.208;4.238;2022-08-19T06:01:44;19.40;99.90
14527;DHT22;7350;51.208;4.238;2022-08-19T06:04:12;19.50;99.90
14527;DHT22;7350;51.208;4.238;2022-08-19T06:06:40;19.60;99.90
14527;DHT22;7350;51.208;4.238;2022-08-19T06:09:08;19.60;99.90
14527;DHT22;7350;51.208;4.238;2022-08-19T06:11:38;19.70;99.90
14527;DHT22;7350;51.208;4.238;2022-08-19T06:14:10;19.70;99.90
14527;DHT22;7350;51.208;4.238;2022-08-19T06:16:38;19.80;99.90
14527;DHT22;7350;51.208;4.238;2022-08-19T06:19:09;20.00;99.90
14527;DHT22;7350;51.208;4.238;2022-08-19T06:21:38;20.10;99.90
14527;DHT22;7350;51.208;4.238;2022-08-19T06:24:09;20.00;99.90
14527;DHT22;7350;51.208;4.238;2022-08-19T06:26:38;20.20;99.90
14527;DHT22;7350;51.208;4.238;2022-08-19T06:29:06;20.30;99.90
14527;DHT22;7350;51.208;4.238;2022-08-19T06:31:35;20.30;99.90
14527;DHT22;7350;51.208;4.238;2022-08-19T06:34:03;20.60;99.90
14527;DHT22;7350;51.208;4.238;2022-08-19T06:36:33;20.60;99.90
14527;DHT22;7350;51.208;4.238;2022-08-19T06:39:02;20.60;99.90
14527;DHT22;7350;51.208;4.238;2022-08-19T06:41:31;20.60;99.90
14527;DHT22;7350;51.208;4.238;2022-08-19T06:44:00;20.60;99.90
14527;DHT22;7350;51.208;4.238;2022-08-19T06:46:27;20.80;99.90
14527;DHT22;7350;51.208;4.238;2022-08-19T06:48:54;20.70;99.90
14527;DHT22;7350;51.208;4.238;2022-08-19T06:51:22;20.80;99.90
14527;DHT22;7350;51.208;4.238;2022-08-19T06:53:51;21.00;99.90
14527;DHT22;7350;51.208;4.238;2022-08-19T06:56:20;20.90;99.90
14527;DHT22;7350;51.208;4.238;2022-08-19T06:58:48;20.90;99.90
14527;DHT22;7350;51.208;4.238;2022-08-19T07:01:17;20.80;99.90
14527;DHT22;7350;51.208;4.238;2022-08-19T07:03:44;20.80;99.90
14527;DHT22;7350;51.208;4.238;2022-08-19T07:06:13;20.70;99.90
14527;DHT22;7350;51.208;4.238;2022-08-19T07:08:43;20.80;99.90
14527;DHT22;7350;51.208;4.238;2022-08-19T07:11:14;21.00;99.90
14527;DHT22;7350;51.208;4.238;2022-08-19T07:13:41;21.00;99.90
14527;DHT22;7350;51.208;4.238;2022-08-19T07:16:12;21.00;99.90
14527;DHT22;7350;51.208;4.238;2022-08-19T07:18:39;21.10;99.90
14527;DHT22;7350;51.208;4.238;2022-08-19T07:21:09;21.20;99.90
14527;DHT22;7350;51.208;4.238;2022-08-19T07:23:36;21.10;99.90
14527;DHT22;7350;51.208;4.238;2022-08-19T07:26:05;21.30;99.90
14527;DHT22;7350;51.208;4.238;2022-08-19T07:28:32;21.40;99.90
14527;DHT22;7350;51.208;4.238;2022-08-19T07:30:59;21.30;99.90
14527;DHT22;7350;51.208;4.238;2022-08-19T07:33:30;21.50;99.90
14527;DHT22;7350;51.208;4.238;2022-08-19T07:35:58;21.60;99.90
14527;DHT22;7350;51.208;4.238;2022-08-19T07:38:25;21.60;99.90
14527;DHT22;7350;51.208;4.238;2022-08-19T07:40:52;21.50;99.90
14527;DHT22;7350;51.208;4.238;2022-08-19T07:43:20;21.60;99.90
14527;DHT22;7350;51.208;4.238;2022-08-19T07:45:50;21.80;99.90
14527;DHT22;7350;51.208;4.238;2022-08-19T07:48:18;21.80;99.90
14527;DHT22;7350;51.208;4.238;2022-08-19T07:50:46;21.70;99.90
14527;DHT22;7350;51.208;4.238;2022-08-19T07:53:13;21.90;99.90
14527;DHT22;7350;51.208;4.238;2022-08-19T07:55:40;21.80;99.90
14527;DHT22;7350;51.208;4.238;2022-08-19T07:58:08;21.90;99.90
14527;DHT22;7350;51.208;4.238;2022-08-19T08:00:35;22.00;99.90
14527;DHT22;7350;51.208;4.238;2022-08-19T08:03:02;22.00;99.90
14527;DHT22;7350;51.208;4.238;2022-08-19T08:05:29;22.10;99.90
14527;DHT22;7350;51.208;4.238;2022-08-19T08:08:15;22.20;99.90
14527;DHT22;7350;51.208;4.238;2022-08-19T08:11:01;22.40;99.90
14527;DHT22;7350;51.208;4.238;2022-08-19T08:13:28;22.40;99.90
14527;DHT22;7350;51.208;4.238;2022-08-19T08:15:55;22.40;99.90
14527;DHT22;7350;51.208;4.238;2022-08-19T08:18:23;22.40;99.90
14527;DHT22;7350;51.208;4.238;2022-08-19T08:20:50;22.40;99.90
14527;DHT22;7350;51.208;4.238;2022-08-19T08:23:18;22.40;99.90
14527;DHT22;7350;51.208;4.238;2022-08-19T08:25:53;22.40;99.90
14527;DHT22;7350;51.208;4.238;2022-08-19T08:28:21;22.30;99.90
14527;DHT22;7350;51.208;4.238;2022-08-19T08:30:49;22.50;99.90
14527;DHT22;7350;51.208;4.238;2022-08-19T08:33:18;22.40;99.90
14527;DHT22;7350;51.208;4.238;2022-08-19T08:35:47;22.40;99.90
14527;DHT22;7350;51.208;4.238;2022-08-19T08:38:14;22.50;99.90
14527;DHT22;7350;51.208;4.238;2022-08-19T08:40:47;22.40;99.90
14527;DHT22;7350;51.208;4.238;2022-08-19T08:43:23;22.40;99.90
14527;DHT22;7350;51.208;4.238;2022-08-19T08:45:56;22.50;99.90
14527;DHT22;7350;51.208;4.238;2022-08-19T08:48:35;22.60;99.90
14527;DHT22;7350;51.208;4.238;2022-08-19T08:51:07;22.70;99.90
14527;DHT22;7350;51.208;4.238;2022-08-19T08:53:36;22.60;99.90
14527;DHT22;7350;51.208;4.238;2022-08-19T08:56:07;22.60;99.90
14527;DHT22;7350;51.208;4.238;2022-08-19T08:58:46;22.60;99.90
14527;DHT22;7350;51.208;4.238;2022-08-19T09:01:15;22.50;99.90
14527;DHT22;7350;51.208;4.238;2022-08-19T09:03:43;22.60;99.90
14527;DHT22;7350;51.208;4.238;2022-08-19T09:06:14;22.50;99.90
14527;DHT22;7350;51.208;4.238;2022-08-19T09:08:50;22.60;99.90
14527;DHT22;7350;51.208;4.238;2022-08-19T09:11:39;22.60;99.90
14527;DHT22;7350;51.208;4.238;2022-08-19T09:14:14;22.50;99.90
14527;DHT22;7350;51.208;4.238;2022-08-19T09:16:43;22.50;99.90
14527;DHT22;7350;51.208;4.238;2022-08-19T09:19:10;22.50;99.90
14527;DHT22;7350;51.208;4.238;2022-08-19T09:21:37;22.40;99.90
14527;DHT22;7350;51.208;4.238;2022-08-19T09:24:05;22.50;99.90
14527;DHT22;7350;51.208;4.238;2022-08-19T09:26:32;22.60;99.90
14527;DHT22;7350;51.208;4.238;2022-08-19T09:29:02;22.80;99.90
14527;DHT22;7350;51.208;4.238;2022-08-19T09:31:31;22.80;99.90
14527;DHT22;7350;51.208;4.238;2022-08-19T09:33:59;22.80;99.90
14527;DHT22;7350;51.208;4.238;2022-08-19T09:36:32;22.80;99.90
14527;DHT22;7350;51.208;4.238;2022-08-19T09:39:02;22.50;99.90
14527;DHT22;7350;51.208;4.238;2022-08-19T09:41:29;22.60;99.90
14527;DHT22;7350;51.208;4.238;2022-08-19T09:43:59;22.70;99.90
14527;DHT22;7350;51.208;4.238;2022-08-19T09:46:29;22.70;99.90
14527;DHT22;7350;51.208;4.238;2022-08-19T09:48:58;22.50;99.90
14527;DHT22;7350;51.208;4.238;2022-08-19T09:51:26;22.50;99.90
14527;DHT22;7350;51.208;4.238;2022-08-19T09:53:58;22.60;99.90
14527;DHT22;7350;51.208;4.238;2022-08-19T09:56:25;22.60;99.90
14527;DHT22;7350;51.208;4.238;2022-08-19T09:58:54;22.70;99.90
14527;DHT22;7350;51.208;4.238;2022-08-19T10:01:22;22.90;99.90
14527;DHT22;7350;51.208;4.238;2022-08-19T10:03:53;22.80;99.90
14527;DHT22;7350;51.208;4.238;2022-08-19T10:06:21;22.90;99.90
14527;DHT22;7350;51.208;4.238;2022-08-19T10:08:48;23.10;99.90
14527;DHT22;7350;51.208;4.238;2022-08-19T10:11:17;23.20;99.90
14527;DHT22;7350;51.208;4.238;2022-08-19T10:13:44;23.20;99.90
14527;DHT22;7350;51.208;4.238;2022-08-19T10:16:14;23.50;99.90
14527;DHT22;7350;51.208;4.238;2022-08-19T10:18:43;23.40;99.90
14527;DHT22;7350;51.208;4.238;2022-08-19T10:21:13;23.50;99.90
14527;DHT22;7350;51.208;4.238;2022-08-19T10:23:42;23.60;99.90
14527;DHT22;7350;51.208;4.238;2022-08-19T10:26:12;23.70;99.90
14527;DHT22;7350;51.208;4.238;2022-08-19T10:28:39;23.70;99.90
14527;DHT22;7350;51.208;4.238;2022-08-19T10:31:08;23.70;99.90
14527;DHT22;7350;51.208;4.238;2022-08-19T10:33:36;23.80;99.90
14527;DHT22;7350;51.208;4.238;2022-08-19T10:36:06;23.90;99.90
14527;DHT22;7350;51.208;4.238;2022-08-19T10:38:36;24.20;99.90
14527;DHT22;7350;51.208;4.238;2022-08-19T10:41:07;24.00;99.90
14527;DHT22;7350;51.208;4.238;2022-08-19T10:43:35;24.00;99.90
14527;DHT22;7350;51.208;4.238;2022-08-19T10:46:04;23.90;99.90
14527;DHT22;7350;51.208;4.238;2022-08-19T10:48:31;24.00;99.90
14527;DHT22;7350;51.208;4.238;2022-08-19T10:50:59;24.10;99.90
14527;DHT22;7350;51.208;4.238;2022-08-19T10:53:44;24.10;99.90
14527;DHT22;7350;51.208;4.238;2022-08-19T10:56:11;24.40;99.90
14527;DHT22;7350;51.208;4.238;2022-08-19T10:58:56;24.50;99.90
14527;DHT22;7350;51.208;4.238;2022-08-19T11:01:24;24.60;99.90
14527;DHT22;7350;51.208;4.238;2022-08-19T11:03:51;24.50;99.90
14527;DHT22;7350;51.208;4.238;2022-08-19T11:06:18;24.60;99.90
14527;DHT22;7350;51.208;4.238;2022-08-19T11:08:47;24.50;99.90
14527;DHT22;7350;51.208;4.238;2022-08-19T11:11:14;24.60;99.90
14527;DHT22;7350;51.208;4.238;2022-08-19T11:13:42;24.60;99.90
14527;DHT22;7350;51.208;4.238;2022-08-19T11:16:12;24.40;99.90
14527;DHT22;7350;51.208;4.238;2022-08-19T11:18:42;24.70;99.90
14527;DHT22;7350;51.208;4.238;2022-08-19T11:21:11;24.80;99.90
14527;DHT22;7350;51.208;4.238;2022-08-19T11:23:39;25.00;99.90
14527;DHT22;7350;51.208;4.238;2022-08-19T11:26:07;25.00;99.90
14527;DHT22;7350;51.208;4.238;2022-08-19T11:28:35;25.20;99.90
14527;DHT22;7350;51.208;4.238;2022-08-19T11:31:02;25.30;99.90
14527;DHT22;7350;51.208;4.238;2022-08-19T11:33:29;25.40;99.90
14527;DHT22;7350;51.208;4.238;2022-08-19T11:35:57;25.50;99.90
14527;DHT22;7350;51.208;4.238;2022-08-19T11:38:24;25.80;99.90
14527;DHT22;7350;51.208;4.238;2022-08-19T11:40:56;25.80;99.90
14527;DHT22;7350;51.208;4.238;2022-08-19T11:43:25;25.90;99.90
14527;DHT22;7350;51.208;4.238;2022-08-19T11:45:53;26.20;99.90
14527;DHT22;7350;51.208;4.238;2022-08-19T11:48:20;26.10;99.90
14527;DHT22;7350;51.208;4.238;2022-08-19T11:50:48;26.20;99.90
14527;DHT22;7350;51.208;4.238;2022-08-19T11:53:15;26.10;99.90
14527;DHT22;7350;51.208;4.238;2022-08-19T11:55:44;26.30;99.90
14527;DHT22;7350;51.208;4.238;2022-08-19T11:58:11;26.40;99.90
14527;DHT22;7350;51.208;4.238;2022-08-19T12:00:41;26.40;99.90
14527;DHT22;7350;51.208;4.238;2022-08-19T12:03:11;26.60;99.90
14527;DHT22;7350;51.208;4.238;2022-08-19T12:05:38;26.40;99.90
14527;DHT22;7350;51.208;4.238;2022-08-19T12:08:06;26.30;99.90
14527;DHT22;7350;51.208;4.238;2022-08-19T12:10:33;26.50;99.90
14527;DHT22;7350;51.208;4.238;2022-08-19T12:13:00;26.40;99.90
14527;DHT22;7350;51.208;4.238;2022-08-19T12:15:27;26.40;99.90
14527;DHT22;7350;51.208;4.238;2022-08-19T12:17:57;26.60;99.90
14527;DHT22;7350;51.208;4.238;2022-08-19T12:20:24;26.90;99.90
14527;DHT22;7350;51.208;4.238;2022-08-19T12:22:52;26.90;99.90
14527;DHT22;7350;51.208;4.238;2022-08-19T12:25:19;26.50;99.90
14527;DHT22;7350;51.208;4.238;2022-08-19T12:27:46;26.50;99.90
14527;DHT22;7350;51.208;4.238;2022-08-19T12:30:14;26.40;99.90
14527;DHT22;7350;51.208;4.238;2022-08-19T12:32:41;26.30;99.90
14527;DHT22;7350;51.208;4.238;2022-08-19T12:35:09;26.50;99.90
14527;DHT22;7350;51.208;4.238;2022-08-19T12:37:37;26.30;99.90
14527;DHT22;7350;51.208;4.238;2022-08-19T12:40:08;26.10;99.90
14527;DHT22;7350;51.208;4.238;2022-08-19T12:42:37;26.10;99.90
14527;DHT22;7350;51.208;4.238;2022-08-19T12:45:09;26.10;99.90
14527;DHT22;7350;51.208;4.238;2022-08-19T12:47:36;26.10;99.90
14527;DHT22;7350;51.208;4.238;2022-08-19T12:50:05;26.10;99.90
14527;DHT22;7350;51.208;4.238;2022-08-19T12:52:36;26.20;99.90
14527;DHT22;7350;51.208;4.238;2022-08-19T12:55:05;26.20;99.90
14527;DHT22;7350;51.208;4.238;2022-08-19T12:57:32;26.30;99.90
14527;DHT22;7350;51.208;4.238;2022-08-19T13:00:03;26.40;99.90
14527;DHT22;7350;51.208;4.238;2022-08-19T13:02:32;26.50;99.90
14527;DHT22;7350;51.208;4.238;2022-08-19T13:05:00;26.90;99.90
14527;DHT22;7350;51.208;4.238;2022-08-19T13:07:27;27.10;99.90
14527;DHT22;7350;51.208;4.238;2022-08-19T13:09:55;27.30;99.90
14527;DHT22;7350;51.208;4.238;2022-08-19T13:12:22;27.30;99.90
14527;DHT22;7350;51.208;4.238;2022-08-19T13:14:52;27.50;99.90
14527;DHT22;7350;51.208;4.238;2022-08-19T13:17:19;27.60;99.90
14527;DHT22;7350;51.208;4.238;2022-08-19T13:19:46;27.60;99.90
14527;DHT22;7350;51.208;4.238;2022-08-19T13:22:13;27.70;99.90
14527;DHT22;7350;51.208;4.238;2022-08-19T13:24:40;27.60;99.90
14527;DHT22;7350;51.208;4.238;2022-08-19T13:27:08;27.80;99.90
14527;DHT22;7350;51.208;4.238;2022-08-19T13:29:35;27.70;99.90
14527;DHT22;7350;51.208;4.238;2022-08-19T13:32:20;27.80;99.90
14527;DHT22;7350;51.208;4.238;2022-08-19T13:35:04;28.10;99.90
14527;DHT22;7350;51.208;4.238;2022-08-19T13:37:31;28.10;99.90
14527;DHT22;7350;51.208;4.238;2022-08-19T13:40:13;28.00;99.90
14527;DHT22;7350;51.208;4.238;2022-08-19T13:42:44;27.70;99.90
14527;DHT22;7350;51.208;4.238;2022-08-19T13:45:13;27.70;99.90
14527;DHT22;7350;51.208;4.238;2022-08-19T13:47:42;27.30;99.90
14527;DHT22;7350;51.208;4.238;2022-08-19T13:50:10;27.20;99.90
14527;DHT22;7350;51.208;4.238;2022-08-19T13:52:37;27.10;99.90
14527;DHT22;7350;51.208;4.238;2022-08-19T13:55:06;26.70;99.90
14527;DHT22;7350;51.208;4.238;2022-08-19T13:57:34;26.60;99.90
14527;DHT22;7350;51.208;4.238;2022-08-19T14:00:04;26.60;99.90
14527;DHT22;7350;51.208;4.238;2022-08-19T14:02:33;26.50;99.90
14527;DHT22;7350;51.208;4.238;2022-08-19T14:05:00;26.40;99.90
14527;DHT22;7350;51.208;4.238;2022-08-19T14:07:27;26.00;99.90
14527;DHT22;7350;51.208;4.238;2022-08-19T14:09:54;25.90;99.90
14527;DHT22;7350;51.208;4.238;2022-08-19T14:12:21;26.00;99.90
14527;DHT22;7350;51.208;4.238;2022-08-19T14:14:48;26.00;99.90
14527;DHT22;7350;51.208;4.238;2022-08-19T14:17:17;26.10;99.90
14527;DHT22;7350;51.208;4.238;2022-08-19T14:19:44;25.80;99.90
14527;DHT22;7350;51.208;4.238;2022-08-19T14:22:11;25.50;99.90
14527;DHT22;7350;51.208;4.238;2022-08-19T14:24:38;25.20;99.90
14527;DHT22;7350;51.208;4.238;2022-08-19T14:27:06;24.80;99.90
14527;DHT22;7350;51.208;4.238;2022-08-19T14:29:33;24.50;99.90
14527;DHT22;7350;51.208;4.238;2022-08-19T14:32:00;24.30;99.90
14527;DHT22;7350;51.208;4.238;2022-08-19T14:34:29;23.90;99.90
14527;DHT22;7350;51.208;4.238;2022-08-19T14:36:57;23.70;99.90
14527;DHT22;7350;51.208;4.238;2022-08-19T14:39:24;23.40;99.90
14527;DHT22;7350;51.208;4.238;2022-08-19T14:41:52;23.50;99.90
14527;DHT22;7350;51.208;4.238;2022-08-19T14:44:19;23.50;99.90
14527;DHT22;7350;51.208;4.238;2022-08-19T14:46:46;23.20;99.90
14527;DHT22;7350;51.208;4.238;2022-08-19T14:49:13;23.30;99.90
14527;DHT22;7350;51.208;4.238;2022-08-19T14:51:41;23.30;99.90
14527;DHT22;7350;51.208;4.238;2022-08-19T14:54:08;23.30;99.90
14527;DHT22;7350;51.208;4.238;2022-08-19T14:56:35;23.30;99.90
14527;DHT22;7350;51.208;4.238;2022-08-19T14:59:02;23.50;99.90
14527;DHT22;7350;51.208;4.238;2022-08-19T15:01:29;24.00;99.90
14527;DHT22;7350;51.208;4.238;2022-08-19T15:03:56;24.30;99.90
14527;DHT22;7350;51.208;4.238;2022-08-19T15:06:24;24.70;99.90
14527;DHT22;7350;51.208;4.238;2022-08-19T15:08:53;24.80;99.90
14527;DHT22;7350;51.208;4.238;2022-08-19T15:11:23;25.10;99.90
14527;DHT22;7350;51.208;4.238;2022-08-19T15:13:53;25.20;99.90
14527;DHT22;7350;51.208;4.238;2022-08-19T15:16:21;25.20;99.90
14527;DHT22;7350;51.208;4.238;2022-08-19T15:18:50;25.20;99.90
14527;DHT22;7350;51.208;4.238;2022-08-19T15:21:17;25.30;99.90
14527;DHT22;7350;51.208;4.238;2022-08-19T15:23:45;25.20;99.90
14527;DHT22;7350;51.208;4.238;2022-08-19T15:26:15;25.20;99.90
14527;DHT22;7350;51.208;4.238;2022-08-19T15:28:42;25.10;99.90
14527;DHT22;7350;51.208;4.238;2022-08-19T15:31:09;25.10;99.90
14527;DHT22;7350;51.208;4.238;2022-08-19T15:33:38;25.10;99.90
14527;DHT22;7350;51.208;4.238;2022-08-19T15:36:10;25.00;99.90
14527;DHT22;7350;51.208;4.238;2022-08-19T15:38:39;25.00;99.90
14527;DHT22;7350;51.208;4.238;2022-08-19T15:41:21;25.00;99.90
14527;DHT22;7350;51.208;4.238;2022-08-19T15:43:50;25.20;99.90
14527;DHT22;7350;51.208;4.238;2022-08-19T15:46:18;25.00;99.90
14527;DHT22;7350;51.208;4.238;2022-08-19T15:48:46;24.60;99.90
14527;DHT22;7350;51.208;4.238;2022-08-19T15:51:14;24.10;99.90
14527;DHT22;7350;51.208;4.238;2022-08-19T15:53:41;23.80;99.90
14527;DHT22;7350;51.208;4.238;2022-08-19T15:56:08;24.10;99.90